PWSweather.com
Personal Weather Stations
Station Observations
ITROMSHA6
HarstadNO 9407

HarstadNO 9407

Lat: 68.7814767, Lon: 16.5297091

Elevation: 145

Station Type: Davis Vantage Pro2

High Low Average
Temperature 49.9°F9.9°C 45.1°F7.3°C 47.5°F8.6°C
Dew Point 46.8°F8.2°C 42.8°F6.0°C 45.1°F7.3°C
Winds 15.0 mph 24.1 kmh Calm Calm 2.0 mph SW3.2 kmh SW
Wind Gusts 17.0 mph27.4 kmh -- 1.0 mph1.6 kmh
Humidity 95% 87% 91%
Pressure 29.81 in1009.5 mb 29.34 in993.6 mb -
Precipitation 0.28 in7.1 mm - -
Hour Temp Dew Point Humidity Winds Wind Gusts Pressure Precip Precip Rate Daily Precip Total
12:00 AM 46.7°F8.2°C 45.1°F7.3°C 94% 2.0 mph W3.2 kmh W -- 29.34 in993.6 mb 0.00 in0.0 mm 0.00 in0.0 mm 0.00 in0.0 mm
12:05 AM 46.6°F8.1°C 45.0°F7.2°C 94% 4.0 mph W6.4 kmh W -- 29.34 in993.6 mb 0.00 in0.0 mm 0.00 in0.0 mm 0.00 in0.0 mm
12:10 AM 46.6°F8.1°C 45.0°F7.2°C 94% 4.0 mph W6.4 kmh W -- 29.34 in993.6 mb 0.00 in0.0 mm 0.00 in0.0 mm 0.00 in0.0 mm
12:15 AM 46.7°F8.2°C 45.1°F7.3°C 94% 3.0 mph W4.8 kmh W 6.0 mph9.7 kmh 29.34 in993.6 mb 0.00 in0.0 mm 0.00 in0.0 mm 0.00 in0.0 mm
12:20 AM 46.7°F8.2°C 45.1°F7.3°C 94% 2.0 mph WSW3.2 kmh WSW -- 29.34 in993.6 mb 0.00 in0.0 mm 0.00 in0.0 mm 0.00 in0.0 mm
12:25 AM 46.7°F8.2°C 45.1°F7.3°C 94% 3.0 mph WSW4.8 kmh WSW -- 29.34 in993.6 mb 0.00 in0.0 mm 0.00 in0.0 mm 0.00 in0.0 mm
12:30 AM 46.8°F8.2°C 45.1°F7.3°C 94% 2.0 mph WSW3.2 kmh WSW -- 29.34 in993.6 mb 0.00 in0.0 mm 0.00 in0.0 mm 0.00 in0.0 mm
12:35 AM 46.8°F8.2°C 45.1°F7.3°C 94% 1.0 mph WSW1.6 kmh WSW -- 29.34 in993.6 mb 0.00 in0.0 mm 0.00 in0.0 mm 0.00 in0.0 mm
12:40 AM 46.8°F8.2°C 45.1°F7.3°C 94% 3.0 mph WSW4.8 kmh WSW 5.0 mph8.0 kmh 29.34 in993.6 mb 0.00 in0.0 mm 0.00 in0.0 mm 0.00 in0.0 mm
12:45 AM 46.8°F8.2°C 45.1°F7.3°C 94% 2.0 mph WSW3.2 kmh WSW -- 29.34 in993.6 mb 0.00 in0.0 mm 0.00 in0.0 mm 0.00 in0.0 mm
12:50 AM 46.9°F8.3°C 45.3°F7.4°C 94% 1.0 mph W1.6 kmh W -- 29.34 in993.6 mb 0.00 in0.0 mm 0.00 in0.0 mm 0.00 in0.0 mm
12:55 AM 46.9°F8.3°C 45.3°F7.4°C 94% 3.0 mph W4.8 kmh W -- 29.34 in993.6 mb 0.00 in0.0 mm 0.00 in0.0 mm 0.00 in0.0 mm
01:00 AM 46.8°F8.2°C 45.1°F7.3°C 94% 2.0 mph WSW3.2 kmh WSW -- 29.34 in993.6 mb 0.00 in0.0 mm 0.00 in0.0 mm 0.00 in0.0 mm
01:05 AM 46.8°F8.2°C 45.1°F7.3°C 94% 2.0 mph WSW3.2 kmh WSW 5.0 mph8.0 kmh 29.34 in993.6 mb 0.00 in0.0 mm 0.00 in0.0 mm 0.00 in0.0 mm
01:10 AM 46.7°F8.2°C 45.1°F7.3°C 94% Calm Calm -- 29.34 in993.6 mb 0.00 in0.0 mm 0.00 in0.0 mm 0.00 in0.0 mm
01:15 AM 46.7°F8.2°C 45.1°F7.3°C 94% 1.0 mph WSW1.6 kmh WSW -- 29.34 in993.6 mb 0.00 in0.0 mm 0.00 in0.0 mm 0.00 in0.0 mm
01:20 AM 46.6°F8.1°C 45.0°F7.2°C 94% 2.0 mph WSW3.2 kmh WSW -- 29.34 in993.6 mb 0.00 in0.0 mm 0.00 in0.0 mm 0.00 in0.0 mm
01:25 AM 46.6°F8.1°C 45.0°F7.2°C 94% 2.0 mph WSW3.2 kmh WSW -- 29.34 in993.6 mb 0.00 in0.0 mm 0.00 in0.0 mm 0.00 in0.0 mm
01:30 AM 46.6°F8.1°C 45.0°F7.2°C 94% 1.0 mph WSW1.6 kmh WSW 4.0 mph6.4 kmh 29.34 in993.6 mb 0.00 in0.0 mm 0.00 in0.0 mm 0.00 in0.0 mm
01:35 AM 46.5°F8.1°C 45.0°F7.2°C 94% 2.0 mph SW3.2 kmh SW -- 29.34 in993.6 mb 0.00 in0.0 mm 0.00 in0.0 mm 0.00 in0.0 mm
01:40 AM 46.5°F8.1°C 45.0°F7.2°C 94% 2.0 mph SW3.2 kmh SW -- 29.34 in993.6 mb 0.00 in0.0 mm 0.00 in0.0 mm 0.00 in0.0 mm
01:45 AM 46.5°F8.1°C 45.0°F7.2°C 94% 1.0 mph SW1.6 kmh SW -- 29.34 in993.6 mb 0.00 in0.0 mm 0.00 in0.0 mm 0.00 in0.0 mm
01:50 AM 46.5°F8.1°C 45.0°F7.2°C 94% 2.0 mph SW3.2 kmh SW -- 29.34 in993.6 mb 0.00 in0.0 mm 0.00 in0.0 mm 0.00 in0.0 mm
01:55 AM 46.4°F8.0°C 44.8°F7.1°C 94% 1.0 mph WSW1.6 kmh WSW 3.0 mph4.8 kmh 29.34 in993.6 mb 0.00 in0.0 mm 0.00 in0.0 mm 0.00 in0.0 mm
02:00 AM 46.4°F8.0°C 44.8°F7.1°C 94% 2.0 mph WSW3.2 kmh WSW -- 29.34 in993.6 mb 0.00 in0.0 mm 0.00 in0.0 mm 0.00 in0.0 mm
02:05 AM 46.4°F8.0°C 44.8°F7.1°C 94% 3.0 mph WSW4.8 kmh WSW -- 29.34 in993.6 mb 0.00 in0.0 mm 0.00 in0.0 mm 0.00 in0.0 mm
02:10 AM 46.4°F8.0°C 44.8°F7.1°C 94% 3.0 mph WSW4.8 kmh WSW -- 29.34 in993.6 mb 0.00 in0.0 mm 0.00 in0.0 mm 0.00 in0.0 mm
02:15 AM 46.4°F8.0°C 44.8°F7.1°C 94% 2.0 mph SW3.2 kmh SW -- 29.34 in993.6 mb 0.00 in0.0 mm 0.00 in0.0 mm 0.00 in0.0 mm
02:20 AM 46.4°F8.0°C 44.8°F7.1°C 94% 1.0 mph WSW1.6 kmh WSW 4.0 mph6.4 kmh 29.34 in993.6 mb 0.00 in0.0 mm 0.00 in0.0 mm 0.00 in0.0 mm
02:25 AM 46.5°F8.1°C 45.0°F7.2°C 94% 2.0 mph WSW3.2 kmh WSW -- 29.34 in993.6 mb 0.00 in0.0 mm 0.00 in0.0 mm 0.00 in0.0 mm
02:30 AM 46.5°F8.1°C 45.0°F7.2°C 94% 2.0 mph WSW3.2 kmh WSW -- 29.34 in993.6 mb 0.00 in0.0 mm 0.00 in0.0 mm 0.00 in0.0 mm
02:35 AM 46.5°F8.1°C 45.0°F7.2°C 94% Calm Calm -- 29.34 in993.6 mb 0.00 in0.0 mm 0.00 in0.0 mm 0.00 in0.0 mm
02:40 AM 46.4°F8.0°C 44.8°F7.1°C 94% Calm Calm -- 29.34 in993.6 mb 0.00 in0.0 mm 0.00 in0.0 mm 0.00 in0.0 mm
02:45 AM 46.4°F8.0°C 44.8°F7.1°C 94% Calm Calm 2.0 mph3.2 kmh 29.34 in993.6 mb 0.00 in0.0 mm 0.00 in0.0 mm 0.00 in0.0 mm
02:50 AM 46.4°F8.0°C 44.8°F7.1°C 94% 1.0 mph WSW1.6 kmh WSW -- 29.34 in993.6 mb 0.00 in0.0 mm 0.00 in0.0 mm 0.00 in0.0 mm
02:55 AM 46.4°F8.0°C 44.8°F7.1°C 94% 1.0 mph WSW1.6 kmh WSW -- 29.34 in993.6 mb 0.00 in0.0 mm 0.00 in0.0 mm 0.00 in0.0 mm
03:00 AM 46.3°F7.9°C 44.6°F7.0°C 94% Calm Calm -- 29.34 in993.6 mb 0.00 in0.0 mm 0.00 in0.0 mm 0.00 in0.0 mm
03:05 AM 46.4°F8.0°C 44.4°F6.9°C 93% 1.0 mph WSW1.6 kmh WSW -- 29.34 in993.6 mb 0.00 in0.0 mm 0.00 in0.0 mm 0.00 in0.0 mm
03:10 AM 46.4°F8.0°C 44.4°F6.9°C 93% Calm Calm 2.0 mph3.2 kmh 29.34 in993.6 mb 0.00 in0.0 mm 0.00 in0.0 mm 0.00 in0.0 mm
03:15 AM 46.4°F8.0°C 44.4°F6.9°C 93% Calm Calm -- 29.34 in993.6 mb 0.00 in0.0 mm 0.00 in0.0 mm 0.00 in0.0 mm
03:20 AM 46.4°F8.0°C 44.4°F6.9°C 93% Calm Calm -- 29.34 in993.6 mb 0.00 in0.0 mm 0.00 in0.0 mm 0.00 in0.0 mm
03:25 AM 46.4°F8.0°C 44.4°F6.9°C 93% Calm Calm -- 29.34 in993.6 mb 0.00 in0.0 mm 0.00 in0.0 mm 0.00 in0.0 mm
03:30 AM 46.4°F8.0°C 44.8°F7.1°C 94% Calm Calm -- 29.34 in993.6 mb 0.00 in0.0 mm 0.00 in0.0 mm 0.00 in0.0 mm
03:35 AM 46.4°F8.0°C 44.8°F7.1°C 94% Calm Calm -- 29.34 in993.6 mb 0.00 in0.0 mm 0.00 in0.0 mm 0.00 in0.0 mm
03:40 AM 46.5°F8.1°C 45.0°F7.2°C 94% Calm Calm -- 29.34 in993.6 mb 0.00 in0.0 mm 0.00 in0.0 mm 0.00 in0.0 mm
03:45 AM 46.4°F8.0°C 44.8°F7.1°C 94% Calm Calm -- 29.34 in993.6 mb 0.00 in0.0 mm 0.00 in0.0 mm 0.00 in0.0 mm
03:50 AM 46.4°F8.0°C 44.8°F7.1°C 94% Calm Calm -- 29.34 in993.6 mb 0.00 in0.0 mm 0.00 in0.0 mm 0.00 in0.0 mm
03:55 AM 46.3°F7.9°C 44.2°F6.8°C 93% 1.0 mph WSW1.6 kmh WSW -- 29.34 in993.6 mb 0.00 in0.0 mm 0.00 in0.0 mm 0.00 in0.0 mm
04:00 AM 46.3°F7.9°C 44.6°F7.0°C 94% Calm Calm 2.0 mph3.2 kmh 29.34 in993.6 mb 0.00 in0.0 mm 0.00 in0.0 mm 0.00 in0.0 mm
04:05 AM 46.2°F7.9°C 44.6°F7.0°C 94% 1.0 mph WSW1.6 kmh WSW -- 29.34 in993.6 mb 0.00 in0.0 mm 0.00 in0.0 mm 0.00 in0.0 mm
04:10 AM 46.2°F7.9°C 44.6°F7.0°C 94% 1.0 mph WSW1.6 kmh WSW -- 29.34 in993.6 mb 0.00 in0.0 mm 0.00 in0.0 mm 0.00 in0.0 mm
04:15 AM 46.2°F7.9°C 44.6°F7.0°C 94% 2.0 mph WSW3.2 kmh WSW -- 29.34 in993.6 mb 0.00 in0.0 mm 0.00 in0.0 mm 0.00 in0.0 mm
04:20 AM 46.1°F7.8°C 44.4°F6.9°C 94% 1.0 mph WSW1.6 kmh WSW -- 29.34 in993.6 mb 0.00 in0.0 mm 0.00 in0.0 mm 0.00 in0.0 mm
04:25 AM 46.0°F7.8°C 44.4°F6.9°C 94% 1.0 mph WSW1.6 kmh WSW 2.0 mph3.2 kmh 29.34 in993.6 mb 0.00 in0.0 mm 0.00 in0.0 mm 0.00 in0.0 mm
04:30 AM 46.0°F7.8°C 44.4°F6.9°C 94% 2.0 mph WSW3.2 kmh WSW -- 29.34 in993.6 mb 0.00 in0.0 mm 0.00 in0.0 mm 0.00 in0.0 mm
04:35 AM 45.9°F7.7°C 44.2°F6.8°C 94% 1.0 mph WSW1.6 kmh WSW -- 29.34 in993.6 mb 0.00 in0.0 mm 0.00 in0.0 mm 0.00 in0.0 mm
04:40 AM 45.9°F7.7°C 44.2°F6.8°C 94% 1.0 mph WSW1.6 kmh WSW -- 29.34 in993.6 mb 0.00 in0.0 mm 0.00 in0.0 mm 0.00 in0.0 mm
04:45 AM 45.8°F7.7°C 44.2°F6.8°C 94% Calm Calm -- 29.34 in993.6 mb 0.00 in0.0 mm 0.00 in0.0 mm 0.00 in0.0 mm
04:50 AM 45.7°F7.6°C 44.1°F6.7°C 94% 1.0 mph WSW1.6 kmh WSW 2.0 mph3.2 kmh 29.34 in993.6 mb 0.00 in0.0 mm 0.00 in0.0 mm 0.00 in0.0 mm
04:55 AM 45.7°F7.6°C 44.4°F6.9°C 95% 1.0 mph WSW1.6 kmh WSW -- 29.34 in993.6 mb 0.00 in0.0 mm 0.00 in0.0 mm 0.00 in0.0 mm
05:00 AM 45.7°F7.6°C 44.4°F6.9°C 95% 1.0 mph WSW1.6 kmh WSW -- 29.34 in993.6 mb 0.00 in0.0 mm 0.00 in0.0 mm 0.00 in0.0 mm
05:05 AM 45.7°F7.6°C 44.4°F6.9°C 95% Calm Calm -- 29.34 in993.6 mb 0.00 in0.0 mm 0.00 in0.0 mm 0.00 in0.0 mm
05:10 AM 45.7°F7.6°C 44.4°F6.9°C 95% 1.0 mph WSW1.6 kmh WSW -- 29.34 in993.6 mb 0.00 in0.0 mm 0.00 in0.0 mm 0.00 in0.0 mm
05:15 AM 45.7°F7.6°C 44.4°F6.9°C 95% Calm Calm 2.0 mph3.2 kmh 29.34 in993.6 mb 0.00 in0.0 mm 0.00 in0.0 mm 0.00 in0.0 mm
05:20 AM 45.6°F7.6°C 44.4°F6.9°C 95% Calm Calm -- 29.34 in993.6 mb 0.00 in0.0 mm 0.00 in0.0 mm 0.00 in0.0 mm
05:25 AM 45.6°F7.6°C 44.4°F6.9°C 95% Calm Calm -- 29.34 in993.6 mb 0.00 in0.0 mm 0.00 in0.0 mm 0.00 in0.0 mm
05:30 AM 45.6°F7.6°C 44.4°F6.9°C 95% Calm Calm -- 29.34 in993.6 mb 0.00 in0.0 mm 0.00 in0.0 mm 0.00 in0.0 mm
05:35 AM 45.7°F7.6°C 44.4°F6.9°C 95% 1.0 mph WSW1.6 kmh WSW -- 29.34 in993.6 mb 0.00 in0.0 mm 0.00 in0.0 mm 0.00 in0.0 mm
05:40 AM 45.7°F7.6°C 44.4°F6.9°C 95% Calm Calm 2.0 mph3.2 kmh 29.34 in993.6 mb 0.00 in0.0 mm 0.00 in0.0 mm 0.00 in0.0 mm
05:45 AM 45.7°F7.6°C 44.4°F6.9°C 95% Calm Calm -- 29.34 in993.6 mb 0.00 in0.0 mm 0.00 in0.0 mm 0.00 in0.0 mm
05:50 AM 45.8°F7.7°C 44.4°F6.9°C 95% Calm Calm -- 29.34 in993.6 mb 0.00 in0.0 mm 0.00 in0.0 mm 0.00 in0.0 mm
05:55 AM 45.8°F7.7°C 44.4°F6.9°C 95% Calm Calm -- 29.34 in993.6 mb 0.00 in0.0 mm 0.00 in0.0 mm 0.00 in0.0 mm
06:00 AM 45.9°F7.7°C 44.4°F6.9°C 95% Calm Calm -- 29.34 in993.6 mb 0.00 in0.0 mm 0.00 in0.0 mm 0.00 in0.0 mm
06:05 AM 46.0°F7.8°C 44.6°F7.0°C 95% Calm Calm 1.0 mph1.6 kmh 29.34 in993.6 mb 0.00 in0.0 mm 0.00 in0.0 mm 0.00 in0.0 mm
06:10 AM 46.0°F7.8°C 44.6°F7.0°C 95% Calm Calm -- 29.35 in993.9 mb 0.00 in0.0 mm 0.00 in0.0 mm 0.00 in0.0 mm
06:15 AM 46.1°F7.8°C 44.6°F7.0°C 95% Calm Calm -- 29.35 in993.9 mb 0.00 in0.0 mm 0.00 in0.0 mm 0.00 in0.0 mm
06:20 AM 46.2°F7.9°C 44.8°F7.1°C 95% Calm Calm -- 29.35 in993.9 mb 0.00 in0.0 mm 0.00 in0.0 mm 0.00 in0.0 mm
06:25 AM 46.3°F7.9°C 44.8°F7.1°C 95% Calm Calm -- 29.35 in993.9 mb 0.00 in0.0 mm 0.00 in0.0 mm 0.00 in0.0 mm
06:30 AM 46.4°F8.0°C 45.0°F7.2°C 95% Calm Calm -- 29.35 in993.9 mb 0.00 in0.0 mm 0.00 in0.0 mm 0.00 in0.0 mm
06:35 AM 46.6°F8.1°C 45.1°F7.3°C 95% Calm Calm -- 29.35 in993.9 mb 0.00 in0.0 mm 0.00 in0.0 mm 0.00 in0.0 mm
06:40 AM 46.7°F8.2°C 45.3°F7.4°C 95% Calm Calm -- 29.35 in993.9 mb 0.00 in0.0 mm 0.00 in0.0 mm 0.00 in0.0 mm
06:45 AM 46.7°F8.2°C 45.3°F7.4°C 95% Calm Calm -- 29.35 in993.9 mb 0.00 in0.0 mm 0.00 in0.0 mm 0.00 in0.0 mm
06:50 AM 46.9°F8.3°C 45.5°F7.5°C 95% Calm Calm -- 29.35 in993.9 mb 0.00 in0.0 mm 0.00 in0.0 mm 0.00 in0.0 mm
06:55 AM 47.0°F8.3°C 45.5°F7.5°C 95% Calm Calm -- 29.35 in993.9 mb 0.00 in0.0 mm 0.00 in0.0 mm 0.00 in0.0 mm
07:00 AM 47.0°F8.3°C 45.5°F7.5°C 95% Calm Calm -- 29.35 in993.9 mb 0.00 in0.0 mm 0.00 in0.0 mm 0.00 in0.0 mm
07:05 AM 46.9°F8.3°C 45.5°F7.5°C 95% Calm Calm -- 29.36 in994.2 mb 0.00 in0.0 mm 0.00 in0.0 mm 0.00 in0.0 mm
07:10 AM 46.9°F8.3°C 45.5°F7.5°C 95% Calm Calm -- 29.36 in994.2 mb 0.00 in0.0 mm 0.00 in0.0 mm 0.00 in0.0 mm
07:15 AM 47.0°F8.3°C 45.5°F7.5°C 95% Calm Calm -- 29.36 in994.2 mb 0.00 in0.0 mm 0.00 in0.0 mm 0.00 in0.0 mm
07:20 AM 47.1°F8.4°C 45.7°F7.6°C 95% Calm Calm 1.0 mph1.6 kmh 29.36 in994.2 mb 0.00 in0.0 mm 0.00 in0.0 mm 0.00 in0.0 mm
07:25 AM 47.2°F8.4°C 45.7°F7.6°C 95% Calm Calm -- 29.36 in994.2 mb 0.00 in0.0 mm 0.00 in0.0 mm 0.00 in0.0 mm
07:30 AM 47.3°F8.5°C 45.7°F7.6°C 94% Calm Calm -- 29.36 in994.2 mb 0.00 in0.0 mm 0.00 in0.0 mm 0.00 in0.0 mm
07:35 AM 47.4°F8.6°C 45.9°F7.7°C 94% Calm Calm -- 29.36 in994.2 mb 0.00 in0.0 mm 0.00 in0.0 mm 0.00 in0.0 mm
07:40 AM 47.6°F8.7°C 46.0°F7.8°C 94% Calm Calm -- 29.36 in994.2 mb 0.00 in0.0 mm 0.00 in0.0 mm 0.00 in0.0 mm
07:45 AM 47.6°F8.7°C 46.0°F7.8°C 94% Calm Calm 1.0 mph1.6 kmh 29.36 in994.2 mb 0.00 in0.0 mm 0.00 in0.0 mm 0.00 in0.0 mm
07:50 AM 47.7°F8.7°C 46.0°F7.8°C 94% Calm Calm -- 29.36 in994.2 mb 0.00 in0.0 mm 0.00 in0.0 mm 0.00 in0.0 mm
07:55 AM 47.7°F8.7°C 45.7°F7.6°C 93% Calm Calm -- 29.36 in994.2 mb 0.00 in0.0 mm 0.00 in0.0 mm 0.00 in0.0 mm
08:00 AM 47.8°F8.8°C 45.9°F7.7°C 93% 1.0 mph SSW1.6 kmh SSW -- 29.37 in994.6 mb 0.00 in0.0 mm 0.00 in0.0 mm 0.00 in0.0 mm
08:05 AM 47.9°F8.8°C 45.9°F7.7°C 93% 2.0 mph SSW3.2 kmh SSW -- 29.37 in994.6 mb 0.00 in0.0 mm 0.00 in0.0 mm 0.00 in0.0 mm
08:10 AM 48.0°F8.9°C 45.9°F7.7°C 92% 2.0 mph SSW3.2 kmh SSW 4.0 mph6.4 kmh 29.37 in994.6 mb 0.00 in0.0 mm 0.00 in0.0 mm 0.00 in0.0 mm
08:15 AM 48.2°F9.0°C 46.0°F7.8°C 92% 2.0 mph SSW3.2 kmh SSW -- 29.37 in994.6 mb 0.00 in0.0 mm 0.00 in0.0 mm 0.00 in0.0 mm
08:20 AM 48.3°F9.1°C 45.9°F7.7°C 91% 2.0 mph SSW3.2 kmh SSW -- 29.37 in994.6 mb 0.00 in0.0 mm 0.00 in0.0 mm 0.00 in0.0 mm
08:25 AM 48.4°F9.1°C 45.9°F7.7°C 91% Calm Calm -- 29.37 in994.6 mb 0.00 in0.0 mm 0.00 in0.0 mm 0.00 in0.0 mm
08:30 AM 48.5°F9.2°C 45.7°F7.6°C 90% Calm Calm -- 29.37 in994.6 mb 0.00 in0.0 mm 0.00 in0.0 mm 0.00 in0.0 mm
08:35 AM 48.6°F9.2°C 45.7°F7.6°C 90% 2.0 mph SW3.2 kmh SW 4.0 mph6.4 kmh 29.37 in994.6 mb 0.00 in0.0 mm 0.00 in0.0 mm 0.00 in0.0 mm
08:40 AM 48.8°F9.3°C 45.9°F7.7°C 90% Calm Calm -- 29.38 in994.9 mb 0.00 in0.0 mm 0.00 in0.0 mm 0.00 in0.0 mm
08:45 AM 48.9°F9.4°C 46.0°F7.8°C 90% Calm Calm -- 29.38 in994.9 mb 0.00 in0.0 mm 0.00 in0.0 mm 0.00 in0.0 mm
08:50 AM 49.0°F9.4°C 46.0°F7.8°C 90% Calm Calm -- 29.38 in994.9 mb 0.00 in0.0 mm 0.00 in0.0 mm 0.00 in0.0 mm
08:55 AM 49.1°F9.5°C 46.2°F7.9°C 90% Calm Calm -- 29.38 in994.9 mb 0.00 in0.0 mm 0.00 in0.0 mm 0.00 in0.0 mm
09:00 AM 49.2°F9.6°C 46.2°F7.9°C 89% Calm Calm 1.0 mph1.6 kmh 29.38 in994.9 mb 0.00 in0.0 mm 0.00 in0.0 mm 0.00 in0.0 mm
09:05 AM 49.4°F9.7°C 46.4°F8.0°C 89% Calm Calm -- 29.38 in994.9 mb 0.00 in0.0 mm 0.00 in0.0 mm 0.00 in0.0 mm
09:10 AM 49.5°F9.7°C 46.4°F8.0°C 89% Calm Calm -- 29.38 in994.9 mb 0.00 in0.0 mm 0.00 in0.0 mm 0.00 in0.0 mm
09:15 AM 49.6°F9.8°C 46.2°F7.9°C 88% Calm Calm -- 29.39 in995.3 mb 0.00 in0.0 mm 0.00 in0.0 mm 0.00 in0.0 mm
09:20 AM 49.6°F9.8°C 46.2°F7.9°C 88% 2.0 mph SW3.2 kmh SW -- 29.39 in995.3 mb 0.00 in0.0 mm 0.00 in0.0 mm 0.00 in0.0 mm
09:25 AM 49.6°F9.8°C 45.9°F7.7°C 87% 2.0 mph SW3.2 kmh SW 4.0 mph6.4 kmh 29.39 in995.3 mb 0.00 in0.0 mm 0.00 in0.0 mm 0.00 in0.0 mm
09:30 AM 49.6°F9.8°C 45.9°F7.7°C 87% Calm Calm -- 29.39 in995.3 mb 0.00 in0.0 mm 0.00 in0.0 mm 0.00 in0.0 mm
09:35 AM 49.5°F9.7°C 46.0°F7.8°C 88% Calm Calm -- 29.39 in995.3 mb 0.00 in0.0 mm 0.00 in0.0 mm 0.00 in0.0 mm
09:40 AM 49.5°F9.7°C 46.0°F7.8°C 88% Calm Calm -- 29.39 in995.3 mb 0.00 in0.0 mm 0.00 in0.0 mm 0.00 in0.0 mm
09:45 AM 49.5°F9.7°C 46.0°F7.8°C 88% 1.0 mph SSW1.6 kmh SSW -- 29.39 in995.3 mb 0.00 in0.0 mm 0.00 in0.0 mm 0.00 in0.0 mm
09:50 AM 49.6°F9.8°C 46.2°F7.9°C 88% 5.0 mph WSW8.0 kmh WSW 6.0 mph9.7 kmh 29.40 in995.6 mb 0.00 in0.0 mm 0.00 in0.0 mm 0.00 in0.0 mm
09:55 AM 49.5°F9.7°C 46.0°F7.8°C 88% 2.0 mph SW3.2 kmh SW -- 29.40 in995.6 mb 0.00 in0.0 mm 0.00 in0.0 mm 0.00 in0.0 mm
10:00 AM 49.5°F9.7°C 46.4°F8.0°C 89% 3.0 mph SW4.8 kmh SW -- 29.41 in995.9 mb 0.00 in0.0 mm 0.00 in0.0 mm 0.00 in0.0 mm
10:05 AM 49.2°F9.6°C 46.2°F7.9°C 89% 2.0 mph SW3.2 kmh SW -- 29.41 in995.9 mb 0.00 in0.0 mm 0.00 in0.0 mm 0.00 in0.0 mm
10:10 AM 49.2°F9.6°C 46.4°F8.0°C 90% 2.0 mph SW3.2 kmh SW -- 29.41 in995.9 mb 0.01 in0.3 mm 0.12 in3.0 mm 0.01 in0.3 mm
10:15 AM 49.0°F9.4°C 46.0°F7.8°C 90% 5.0 mph S8.0 kmh S 11.0 mph17.7 kmh 29.41 in995.9 mb 0.01 in0.3 mm 0.00 in0.0 mm 0.01 in0.3 mm
10:20 AM 49.0°F9.4°C 46.0°F7.8°C 90% 4.0 mph SSW6.4 kmh SSW -- 29.41 in995.9 mb 0.01 in0.3 mm 0.00 in0.0 mm 0.01 in0.3 mm
10:25 AM 49.2°F9.6°C 46.8°F8.2°C 91% 7.0 mph SSW11.3 kmh SSW -- 29.41 in995.9 mb 0.01 in0.3 mm 0.00 in0.0 mm 0.01 in0.3 mm
10:30 AM 49.2°F9.6°C 46.4°F8.0°C 90% 4.0 mph WSW6.4 kmh WSW -- 29.41 in995.9 mb 0.01 in0.3 mm 0.00 in0.0 mm 0.01 in0.3 mm
10:35 AM 49.4°F9.7°C 46.6°F8.1°C 90% 3.0 mph W4.8 kmh W -- 29.41 in995.9 mb 0.01 in0.3 mm 0.00 in0.0 mm 0.01 in0.3 mm
10:40 AM 49.5°F9.7°C 46.4°F8.0°C 89% 10.0 mph SW16.1 kmh SW 14.0 mph22.5 kmh 29.42 in996.3 mb 0.01 in0.3 mm 0.00 in0.0 mm 0.01 in0.3 mm
10:45 AM 49.6°F9.8°C 46.6°F8.1°C 89% 2.0 mph SSW3.2 kmh SSW -- 29.42 in996.3 mb 0.01 in0.3 mm 0.00 in0.0 mm 0.01 in0.3 mm
10:50 AM 49.6°F9.8°C 46.6°F8.1°C 89% 4.0 mph SW6.4 kmh SW -- 29.42 in996.3 mb 0.01 in0.3 mm 0.00 in0.0 mm 0.01 in0.3 mm
10:55 AM 49.7°F9.8°C 46.6°F8.1°C 89% 3.0 mph WSW4.8 kmh WSW -- 29.42 in996.3 mb 0.01 in0.3 mm 0.00 in0.0 mm 0.01 in0.3 mm
11:00 AM 49.8°F9.9°C 46.8°F8.2°C 89% 1.0 mph S1.6 kmh S -- 29.42 in996.3 mb 0.01 in0.3 mm 0.00 in0.0 mm 0.01 in0.3 mm
11:05 AM 49.9°F9.9°C 46.8°F8.2°C 89% 6.0 mph SW9.7 kmh SW 9.0 mph14.5 kmh 29.43 in996.6 mb 0.01 in0.3 mm 0.00 in0.0 mm 0.01 in0.3 mm
11:10 AM 49.8°F9.9°C 46.8°F8.2°C 89% 4.0 mph SW6.4 kmh SW -- 29.43 in996.6 mb 0.01 in0.3 mm 0.00 in0.0 mm 0.01 in0.3 mm
11:15 AM 49.8°F9.9°C 46.8°F8.2°C 89% 5.0 mph SE8.0 kmh SE -- 29.43 in996.6 mb 0.00 in0.0 mm 0.00 in0.0 mm 0.01 in0.3 mm
11:20 AM 49.8°F9.9°C 46.4°F8.0°C 88% Calm Calm -- 29.43 in996.6 mb 0.00 in0.0 mm 0.00 in0.0 mm 0.01 in0.3 mm
11:25 AM 49.9°F9.9°C 46.8°F8.2°C 89% 5.0 mph W8.0 kmh W -- 29.44 in997.0 mb 0.00 in0.0 mm 0.00 in0.0 mm 0.01 in0.3 mm
11:30 AM 49.7°F9.8°C 46.6°F8.1°C 89% 4.0 mph SW6.4 kmh SW 9.0 mph14.5 kmh 29.44 in997.0 mb 0.00 in0.0 mm 0.00 in0.0 mm 0.01 in0.3 mm
11:35 AM 49.7°F9.8°C 46.2°F7.9°C 88% 3.0 mph W4.8 kmh W -- 29.44 in997.0 mb 0.00 in0.0 mm 0.00 in0.0 mm 0.01 in0.3 mm
11:40 AM 49.7°F9.8°C 46.6°F8.1°C 89% 3.0 mph WNW4.8 kmh WNW -- 29.44 in997.0 mb 0.00 in0.0 mm 0.00 in0.0 mm 0.01 in0.3 mm
11:45 AM 49.7°F9.8°C 46.6°F8.1°C 89% 2.0 mph SW3.2 kmh SW -- 29.45 in997.3 mb 0.00 in0.0 mm 0.00 in0.0 mm 0.01 in0.3 mm
11:50 AM 49.7°F9.8°C 46.6°F8.1°C 89% 7.0 mph SSW11.3 kmh SSW -- 29.45 in997.3 mb 0.00 in0.0 mm 0.00 in0.0 mm 0.01 in0.3 mm
11:55 AM 49.7°F9.8°C 46.2°F7.9°C 88% 5.0 mph SW8.0 kmh SW 12.0 mph19.3 kmh 29.45 in997.3 mb 0.00 in0.0 mm 0.00 in0.0 mm 0.01 in0.3 mm
12:00 PM 49.8°F9.9°C 46.4°F8.0°C 88% 6.0 mph WSW9.7 kmh WSW -- 29.45 in997.3 mb 0.00 in0.0 mm 0.00 in0.0 mm 0.01 in0.3 mm
12:05 PM 49.8°F9.9°C 46.4°F8.0°C 88% 5.0 mph SW8.0 kmh SW -- 29.46 in997.6 mb 0.00 in0.0 mm 0.00 in0.0 mm 0.01 in0.3 mm
12:10 PM 49.8°F9.9°C 46.4°F8.0°C 88% 4.0 mph SW6.4 kmh SW -- 29.46 in997.6 mb 0.00 in0.0 mm 0.00 in0.0 mm 0.01 in0.3 mm
12:15 PM 49.7°F9.8°C 46.6°F8.1°C 89% 2.0 mph SSW3.2 kmh SSW -- 29.46 in997.6 mb 0.01 in0.3 mm 0.12 in3.0 mm 0.02 in0.5 mm
12:20 PM 49.6°F9.8°C 46.6°F8.1°C 89% Calm Calm 7.0 mph11.3 kmh 29.46 in997.6 mb 0.02 in0.5 mm 0.12 in3.0 mm 0.02 in0.5 mm
12:25 PM 49.6°F9.8°C 46.6°F8.1°C 89% 5.0 mph SW8.0 kmh SW -- 29.47 in998.0 mb 0.02 in0.5 mm 0.00 in0.0 mm 0.02 in0.5 mm
12:30 PM 49.6°F9.8°C 46.6°F8.1°C 89% 3.0 mph WSW4.8 kmh WSW -- 29.47 in998.0 mb 0.02 in0.5 mm 0.00 in0.0 mm 0.02 in0.5 mm
12:35 PM 49.5°F9.7°C 46.4°F8.0°C 89% 4.0 mph SW6.4 kmh SW -- 29.47 in998.0 mb 0.02 in0.5 mm 0.00 in0.0 mm 0.02 in0.5 mm
12:40 PM 49.4°F9.7°C 46.6°F8.1°C 90% 6.0 mph SSW9.7 kmh SSW -- 29.47 in998.0 mb 0.02 in0.5 mm 0.00 in0.0 mm 0.02 in0.5 mm
12:45 PM 49.2°F9.6°C 46.4°F8.0°C 90% 12.0 mph WSW19.3 kmh WSW 17.0 mph27.4 kmh 29.47 in998.0 mb 0.02 in0.5 mm 0.00 in0.0 mm 0.03 in0.8 mm
12:50 PM 49.1°F9.5°C 46.2°F7.9°C 90% 7.0 mph SW11.3 kmh SW -- 29.48 in998.3 mb 0.03 in0.8 mm 0.12 in3.0 mm 0.04 in1.0 mm
12:55 PM 49.0°F9.4°C 46.4°F8.0°C 91% 3.0 mph WSW4.8 kmh WSW -- 29.48 in998.3 mb 0.03 in0.8 mm 0.00 in0.0 mm 0.04 in1.0 mm
01:00 PM 49.0°F9.4°C 46.0°F7.8°C 90% 3.0 mph WSW4.8 kmh WSW -- 29.49 in998.6 mb 0.05 in1.3 mm 0.02 in0.5 mm 0.06 in1.5 mm
01:05 PM 49.1°F9.5°C 46.6°F8.1°C 91% 7.0 mph WSW11.3 kmh WSW -- 29.50 in999.0 mb 0.06 in1.5 mm 0.12 in3.0 mm 0.06 in1.5 mm
01:10 PM 48.9°F9.4°C 46.0°F7.8°C 90% 2.0 mph WSW3.2 kmh WSW 14.0 mph22.5 kmh 29.50 in999.0 mb 0.06 in1.5 mm 0.00 in0.0 mm 0.07 in1.8 mm
01:15 PM 48.9°F9.4°C 46.0°F7.8°C 90% 1.0 mph SW1.6 kmh SW -- 29.50 in999.0 mb 0.07 in1.8 mm 0.12 in3.0 mm 0.09 in2.3 mm
01:20 PM 48.9°F9.4°C 46.0°F7.8°C 90% 1.0 mph NNE1.6 kmh NNE -- 29.50 in999.0 mb 0.07 in1.8 mm 0.00 in0.0 mm 0.09 in2.3 mm
01:25 PM 48.8°F9.3°C 45.9°F7.7°C 90% Calm Calm -- 29.51 in999.3 mb 0.08 in2.0 mm 0.12 in3.0 mm 0.10 in2.5 mm
01:30 PM 48.7°F9.3°C 45.9°F7.7°C 90% 4.0 mph W6.4 kmh W -- 29.51 in999.3 mb 0.08 in2.0 mm 0.00 in0.0 mm 0.10 in2.5 mm
01:35 PM 48.6°F9.2°C 45.7°F7.6°C 90% 2.0 mph SW3.2 kmh SW 12.0 mph19.3 kmh 29.52 in999.7 mb 0.09 in2.3 mm 0.12 in3.0 mm 0.11 in2.8 mm
01:40 PM 48.6°F9.2°C 45.7°F7.6°C 90% 5.0 mph W8.0 kmh W -- 29.52 in999.7 mb 0.09 in2.3 mm 0.00 in0.0 mm 0.12 in3.0 mm
01:45 PM 48.7°F9.3°C 45.9°F7.7°C 90% Calm Calm -- 29.53 in1000.0 mb 0.09 in2.3 mm 0.00 in0.0 mm 0.13 in3.3 mm
01:50 PM 48.8°F9.3°C 46.2°F7.9°C 91% 7.0 mph WNW11.3 kmh WNW -- 29.53 in1000.0 mb 0.09 in2.3 mm 0.00 in0.0 mm 0.13 in3.3 mm
01:55 PM 48.8°F9.3°C 45.9°F7.7°C 90% 1.0 mph NW1.6 kmh NW -- 29.53 in1000.0 mb 0.10 in2.5 mm 0.12 in3.0 mm 0.14 in3.6 mm
02:00 PM 48.8°F9.3°C 46.2°F7.9°C 91% 2.0 mph W3.2 kmh W 17.0 mph27.4 kmh 29.53 in1000.0 mb 0.09 in2.3 mm 0.00 in0.0 mm 0.15 in3.8 mm
02:05 PM 48.8°F9.3°C 46.2°F7.9°C 91% 6.0 mph WNW9.7 kmh WNW -- 29.54 in1000.3 mb 0.09 in2.3 mm 0.00 in0.0 mm 0.16 in4.1 mm
02:10 PM 48.6°F9.2°C 45.7°F7.6°C 90% 15.0 mph W24.1 kmh W -- 29.55 in1000.7 mb 0.09 in2.3 mm 0.00 in0.0 mm 0.16 in4.1 mm
02:15 PM 48.7°F9.3°C 45.9°F7.7°C 90% 2.0 mph NNW3.2 kmh NNW -- 29.54 in1000.3 mb 0.08 in2.0 mm 0.00 in0.0 mm 0.17 in4.3 mm
02:20 PM 48.6°F9.2°C 45.7°F7.6°C 90% Calm Calm -- 29.55 in1000.7 mb 0.08 in2.0 mm 0.00 in0.0 mm 0.17 in4.3 mm
02:25 PM 48.5°F9.2°C 45.7°F7.6°C 90% 9.0 mph W14.5 kmh W 11.0 mph17.7 kmh 29.55 in1000.7 mb 0.08 in2.0 mm 0.00 in0.0 mm 0.18 in4.6 mm
02:30 PM 48.3°F9.1°C 45.5°F7.5°C 90% 3.0 mph NW4.8 kmh NW -- 29.56 in1001.0 mb 0.08 in2.0 mm 0.00 in0.0 mm 0.18 in4.6 mm
02:35 PM 48.2°F9.0°C 45.3°F7.4°C 90% 1.0 mph W1.6 kmh W -- 29.56 in1001.0 mb 0.09 in2.3 mm 0.12 in3.0 mm 0.20 in5.1 mm
02:40 PM 48.2°F9.0°C 45.3°F7.4°C 90% 6.0 mph WSW9.7 kmh WSW -- 29.56 in1001.0 mb 0.08 in2.0 mm 0.00 in0.0 mm 0.20 in5.1 mm
02:45 PM 48.2°F9.0°C 45.1°F7.3°C 89% 2.0 mph NW3.2 kmh NW -- 29.57 in1001.4 mb 0.08 in2.0 mm 0.00 in0.0 mm 0.20 in5.1 mm
02:50 PM 48.2°F9.0°C 45.1°F7.3°C 89% 2.0 mph NW3.2 kmh NW 11.0 mph17.7 kmh 29.57 in1001.4 mb 0.08 in2.0 mm 0.00 in0.0 mm 0.21 in5.3 mm
02:55 PM 48.2°F9.0°C 45.1°F7.3°C 89% Calm Calm -- 29.57 in1001.4 mb 0.07 in1.8 mm 0.00 in0.0 mm 0.21 in5.3 mm
03:00 PM 48.2°F9.0°C 45.1°F7.3°C 89% 6.0 mph W9.7 kmh W -- 29.58 in1001.7 mb 0.06 in1.5 mm 0.00 in0.0 mm 0.21 in5.3 mm
03:05 PM 48.3°F9.1°C 45.3°F7.4°C 89% 2.0 mph SSE3.2 kmh SSE -- 29.58 in1001.7 mb 0.06 in1.5 mm 0.00 in0.0 mm 0.21 in5.3 mm
03:10 PM 48.3°F9.1°C 45.3°F7.4°C 89% 3.0 mph W4.8 kmh W -- 29.58 in1001.7 mb 0.06 in1.5 mm 0.00 in0.0 mm 0.21 in5.3 mm
03:15 PM 48.4°F9.1°C 45.3°F7.4°C 89% 2.0 mph SW3.2 kmh SW 10.0 mph16.1 kmh 29.58 in1001.7 mb 0.06 in1.5 mm 0.00 in0.0 mm 0.22 in5.6 mm
03:20 PM 48.4°F9.1°C 45.3°F7.4°C 89% 3.0 mph W4.8 kmh W -- 29.59 in1002.0 mb 0.05 in1.3 mm 0.00 in0.0 mm 0.22 in5.6 mm
03:25 PM 48.5°F9.2°C 45.5°F7.5°C 89% 3.0 mph W4.8 kmh W -- 29.59 in1002.0 mb 0.04 in1.0 mm 0.00 in0.0 mm 0.22 in5.6 mm
03:30 PM 48.4°F9.1°C 45.3°F7.4°C 89% Calm Calm -- 29.59 in1002.0 mb 0.04 in1.0 mm 0.00 in0.0 mm 0.22 in5.6 mm
03:35 PM 48.3°F9.1°C 45.3°F7.4°C 89% 3.0 mph WSW4.8 kmh WSW -- 29.59 in1002.0 mb 0.02 in0.5 mm 0.00 in0.0 mm 0.22 in5.6 mm
03:40 PM 48.3°F9.1°C 45.3°F7.4°C 89% 2.0 mph WSW3.2 kmh WSW 7.0 mph11.3 kmh 29.60 in1002.4 mb 0.02 in0.5 mm 0.00 in0.0 mm 0.22 in5.6 mm
03:45 PM 48.2°F9.0°C 45.1°F7.3°C 89% Calm Calm -- 29.60 in1002.4 mb 0.02 in0.5 mm 0.00 in0.0 mm 0.22 in5.6 mm
03:50 PM 48.4°F9.1°C 45.3°F7.4°C 89% 3.0 mph SSW4.8 kmh SSW -- 29.60 in1002.4 mb 0.01 in0.3 mm 0.00 in0.0 mm 0.22 in5.6 mm
03:55 PM 48.3°F9.1°C 45.3°F7.4°C 89% 1.0 mph SW1.6 kmh SW -- 29.61 in1002.7 mb 0.01 in0.3 mm 0.00 in0.0 mm 0.22 in5.6 mm
04:00 PM 48.2°F9.0°C 45.1°F7.3°C 89% Calm Calm -- 29.61 in1002.7 mb 0.01 in0.3 mm 0.00 in0.0 mm 0.22 in5.6 mm
04:05 PM 48.2°F9.0°C 45.1°F7.3°C 89% 2.0 mph W3.2 kmh W 6.0 mph9.7 kmh 29.61 in1002.7 mb 0.01 in0.3 mm 0.00 in0.0 mm 0.22 in5.6 mm
04:10 PM 48.2°F9.0°C 45.1°F7.3°C 89% Calm Calm -- 29.62 in1003.0 mb 0.01 in0.3 mm 0.00 in0.0 mm 0.22 in5.6 mm
04:15 PM 48.3°F9.1°C 45.3°F7.4°C 89% Calm Calm -- 29.62 in1003.0 mb 0.00 in0.0 mm 0.00 in0.0 mm 0.22 in5.6 mm
04:20 PM 48.2°F9.0°C 45.1°F7.3°C 89% Calm Calm -- 29.62 in1003.0 mb 0.00 in0.0 mm 0.00 in0.0 mm 0.22 in5.6 mm
04:25 PM 48.2°F9.0°C 45.1°F7.3°C 89% 1.0 mph WSW1.6 kmh WSW -- 29.62 in1003.0 mb 0.01 in0.3 mm 0.12 in3.0 mm 0.23 in5.8 mm
04:30 PM 48.1°F8.9°C 45.1°F7.3°C 90% 1.0 mph ESE1.6 kmh ESE 10.0 mph16.1 kmh 29.63 in1003.4 mb 0.01 in0.3 mm 0.00 in0.0 mm 0.23 in5.8 mm
04:35 PM 48.1°F8.9°C 45.0°F7.2°C 89% 5.0 mph WSW8.0 kmh WSW -- 29.63 in1003.4 mb 0.01 in0.3 mm 0.00 in0.0 mm 0.23 in5.8 mm
04:40 PM 48.0°F8.9°C 45.1°F7.3°C 90% 1.0 mph SW1.6 kmh SW -- 29.64 in1003.7 mb 0.02 in0.5 mm 0.12 in3.0 mm 0.24 in6.1 mm
04:45 PM 47.9°F8.8°C 45.1°F7.3°C 90% 4.0 mph WSW6.4 kmh WSW -- 29.64 in1003.7 mb 0.02 in0.5 mm 0.00 in0.0 mm 0.24 in6.1 mm
04:50 PM 47.8°F8.8°C 45.1°F7.3°C 90% 2.0 mph SW3.2 kmh SW -- 29.64 in1003.7 mb 0.02 in0.5 mm 0.00 in0.0 mm 0.24 in6.1 mm
04:55 PM 47.7°F8.7°C 45.0°F7.2°C 90% 3.0 mph SW4.8 kmh SW 10.0 mph16.1 kmh 29.64 in1003.7 mb 0.02 in0.5 mm 0.00 in0.0 mm 0.24 in6.1 mm
05:00 PM 47.7°F8.7°C 45.0°F7.2°C 90% 4.0 mph WSW6.4 kmh WSW -- 29.65 in1004.1 mb 0.02 in0.5 mm 0.00 in0.0 mm 0.24 in6.1 mm
05:05 PM 47.7°F8.7°C 45.1°F7.3°C 91% Calm Calm -- 29.65 in1004.1 mb 0.02 in0.5 mm 0.00 in0.0 mm 0.24 in6.1 mm
05:10 PM 47.7°F8.7°C 45.0°F7.2°C 90% 1.0 mph WNW1.6 kmh WNW -- 29.65 in1004.1 mb 0.02 in0.5 mm 0.00 in0.0 mm 0.24 in6.1 mm
05:15 PM 47.7°F8.7°C 45.1°F7.3°C 91% Calm Calm -- 29.65 in1004.1 mb 0.03 in0.8 mm 0.12 in3.0 mm 0.25 in6.4 mm
05:20 PM 47.7°F8.7°C 45.1°F7.3°C 91% 2.0 mph WSW3.2 kmh WSW 4.0 mph6.4 kmh 29.66 in1004.4 mb 0.03 in0.8 mm 0.00 in0.0 mm 0.25 in6.4 mm
05:25 PM 47.6°F8.7°C 45.1°F7.3°C 91% 2.0 mph SSW3.2 kmh SSW -- 29.66 in1004.4 mb 0.02 in0.5 mm 0.00 in0.0 mm 0.25 in6.4 mm
05:30 PM 47.6°F8.7°C 45.1°F7.3°C 91% 3.0 mph SW4.8 kmh SW -- 29.66 in1004.4 mb 0.03 in0.8 mm 0.12 in3.0 mm 0.26 in6.6 mm
05:35 PM 47.5°F8.6°C 45.0°F7.2°C 91% 1.0 mph SW1.6 kmh SW -- 29.66 in1004.4 mb 0.03 in0.8 mm 0.00 in0.0 mm 0.26 in6.6 mm
05:40 PM 47.5°F8.6°C 45.0°F7.2°C 91% 1.0 mph SSW1.6 kmh SSW -- 29.66 in1004.4 mb 0.03 in0.8 mm 0.00 in0.0 mm 0.27 in6.9 mm
05:45 PM 47.5°F8.6°C 45.0°F7.2°C 91% 3.0 mph SW4.8 kmh SW 6.0 mph9.7 kmh 29.67 in1004.7 mb 0.03 in0.8 mm 0.00 in0.0 mm 0.27 in6.9 mm
05:50 PM 47.5°F8.6°C 45.0°F7.2°C 91% 2.0 mph SW3.2 kmh SW -- 29.67 in1004.7 mb 0.03 in0.8 mm 0.00 in0.0 mm 0.27 in6.9 mm
05:55 PM 47.5°F8.6°C 45.0°F7.2°C 91% Calm Calm -- 29.67 in1004.7 mb 0.02 in0.5 mm 0.00 in0.0 mm 0.27 in6.9 mm
06:00 PM 47.5°F8.6°C 45.0°F7.2°C 91% 2.0 mph SW3.2 kmh SW -- 29.68 in1005.1 mb 0.02 in0.5 mm 0.00 in0.0 mm 0.27 in6.9 mm
06:05 PM 47.5°F8.6°C 45.0°F7.2°C 91% 3.0 mph SW4.8 kmh SW -- 29.68 in1005.1 mb 0.02 in0.5 mm 0.00 in0.0 mm 0.27 in6.9 mm
06:10 PM 47.4°F8.6°C 45.0°F7.2°C 91% 1.0 mph SW1.6 kmh SW 5.0 mph8.0 kmh 29.68 in1005.1 mb 0.02 in0.5 mm 0.00 in0.0 mm 0.27 in6.9 mm
06:15 PM 47.4°F8.6°C 45.0°F7.2°C 91% Calm Calm -- 29.68 in1005.1 mb 0.02 in0.5 mm 0.00 in0.0 mm 0.27 in6.9 mm
06:20 PM 47.4°F8.6°C 45.0°F7.2°C 91% Calm Calm -- 29.68 in1005.1 mb 0.02 in0.5 mm 0.00 in0.0 mm 0.27 in6.9 mm
06:25 PM 47.3°F8.5°C 44.8°F7.1°C 91% 4.0 mph NW6.4 kmh NW -- 29.69 in1005.4 mb 0.02 in0.5 mm 0.00 in0.0 mm 0.27 in6.9 mm
06:30 PM 47.3°F8.5°C 44.8°F7.1°C 91% 2.0 mph SW3.2 kmh SW -- 29.69 in1005.4 mb 0.01 in0.3 mm 0.00 in0.0 mm 0.27 in6.9 mm
06:35 PM 47.2°F8.4°C 44.6°F7.0°C 91% 3.0 mph S4.8 kmh S 6.0 mph9.7 kmh 29.69 in1005.4 mb 0.01 in0.3 mm 0.00 in0.0 mm 0.27 in6.9 mm
06:40 PM 47.2°F8.4°C 44.6°F7.0°C 91% 10.0 mph SW16.1 kmh SW -- 29.69 in1005.4 mb 0.01 in0.3 mm 0.00 in0.0 mm 0.28 in7.1 mm
06:45 PM 47.2°F8.4°C 44.6°F7.0°C 91% 5.0 mph SW8.0 kmh SW -- 29.70 in1005.8 mb 0.01 in0.3 mm 0.00 in0.0 mm 0.28 in7.1 mm
06:50 PM 47.2°F8.4°C 44.6°F7.0°C 91% 2.0 mph W3.2 kmh W -- 29.70 in1005.8 mb 0.01 in0.3 mm 0.00 in0.0 mm 0.28 in7.1 mm
06:55 PM 47.2°F8.4°C 44.6°F7.0°C 91% Calm Calm -- 29.70 in1005.8 mb 0.01 in0.3 mm 0.00 in0.0 mm 0.28 in7.1 mm
07:00 PM 47.2°F8.4°C 44.6°F7.0°C 91% 3.0 mph SW4.8 kmh SW 5.0 mph8.0 kmh 29.70 in1005.8 mb 0.01 in0.3 mm 0.00 in0.0 mm 0.28 in7.1 mm
07:05 PM 47.2°F8.4°C 44.6°F7.0°C 91% 4.0 mph SW6.4 kmh SW -- 29.70 in1005.8 mb 0.01 in0.3 mm 0.00 in0.0 mm 0.28 in7.1 mm
07:10 PM 47.2°F8.4°C 44.6°F7.0°C 91% 4.0 mph S6.4 kmh S -- 29.70 in1005.8 mb 0.01 in0.3 mm 0.00 in0.0 mm 0.28 in7.1 mm
07:15 PM 47.2°F8.4°C 44.6°F7.0°C 91% 4.0 mph WSW6.4 kmh WSW -- 29.70 in1005.8 mb 0.01 in0.3 mm 0.00 in0.0 mm 0.28 in7.1 mm
07:20 PM 47.3°F8.5°C 44.8°F7.1°C 91% 1.0 mph SSW1.6 kmh SSW -- 29.70 in1005.8 mb 0.01 in0.3 mm 0.00 in0.0 mm 0.28 in7.1 mm
07:25 PM 47.3°F8.5°C 44.8°F7.1°C 91% Calm Calm 9.0 mph14.5 kmh 29.70 in1005.8 mb 0.02 in0.5 mm 0.12 in3.0 mm 0.28 in7.1 mm
07:30 PM 47.2°F8.4°C 44.6°F7.0°C 91% 5.0 mph SSW8.0 kmh SSW -- 29.71 in1006.1 mb 0.02 in0.5 mm 0.00 in0.0 mm 0.28 in7.1 mm
07:35 PM 47.1°F8.4°C 44.6°F7.0°C 91% 3.0 mph S4.8 kmh S -- 29.71 in1006.1 mb 0.02 in0.5 mm 0.00 in0.0 mm 0.28 in7.1 mm
07:40 PM 47.1°F8.4°C 44.6°F7.0°C 91% 2.0 mph SW3.2 kmh SW -- 29.71 in1006.1 mb 0.01 in0.3 mm 0.00 in0.0 mm 0.28 in7.1 mm
07:45 PM 47.0°F8.3°C 44.4°F6.9°C 91% 3.0 mph SW4.8 kmh SW -- 29.71 in1006.1 mb 0.01 in0.3 mm 0.00 in0.0 mm 0.28 in7.1 mm
07:50 PM 47.0°F8.3°C 44.4°F6.9°C 91% 3.0 mph SW4.8 kmh SW 8.0 mph12.9 kmh 29.72 in1006.4 mb 0.01 in0.3 mm 0.00 in0.0 mm 0.28 in7.1 mm
07:55 PM 46.9°F8.3°C 44.4°F6.9°C 91% 4.0 mph SW6.4 kmh SW -- 29.72 in1006.4 mb 0.01 in0.3 mm 0.00 in0.0 mm 0.28 in7.1 mm
08:00 PM 47.0°F8.3°C 44.4°F6.9°C 91% 2.0 mph SSW3.2 kmh SSW -- 29.72 in1006.4 mb 0.01 in0.3 mm 0.00 in0.0 mm 0.28 in7.1 mm
08:05 PM 47.1°F8.4°C 44.6°F7.0°C 91% 5.0 mph SSW8.0 kmh SSW -- 29.72 in1006.4 mb 0.01 in0.3 mm 0.00 in0.0 mm 0.28 in7.1 mm
08:10 PM 47.1°F8.4°C 44.6°F7.0°C 91% 5.0 mph SSW8.0 kmh SSW -- 29.72 in1006.4 mb 0.01 in0.3 mm 0.00 in0.0 mm 0.28 in7.1 mm
08:15 PM 47.1°F8.4°C 44.6°F7.0°C 91% 5.0 mph SW8.0 kmh SW 9.0 mph14.5 kmh 29.72 in1006.4 mb 0.01 in0.3 mm 0.00 in0.0 mm 0.28 in7.1 mm
08:20 PM 47.1°F8.4°C 44.6°F7.0°C 91% 2.0 mph SW3.2 kmh SW -- 29.73 in1006.8 mb 0.01 in0.3 mm 0.00 in0.0 mm 0.28 in7.1 mm
08:25 PM 47.2°F8.4°C 44.6°F7.0°C 91% 2.0 mph SW3.2 kmh SW -- 29.73 in1006.8 mb 0.00 in0.0 mm 0.00 in0.0 mm 0.28 in7.1 mm
08:30 PM 47.2°F8.4°C 44.6°F7.0°C 91% 4.0 mph SW6.4 kmh SW -- 29.73 in1006.8 mb 0.00 in0.0 mm 0.00 in0.0 mm 0.28 in7.1 mm
08:35 PM 47.1°F8.4°C 44.6°F7.0°C 91% Calm Calm -- 29.73 in1006.8 mb 0.00 in0.0 mm 0.00 in0.0 mm 0.28 in7.1 mm
08:40 PM 47.1°F8.4°C 44.4°F6.9°C 90% 4.0 mph WSW6.4 kmh WSW 8.0 mph12.9 kmh 29.73 in1006.8 mb 0.00 in0.0 mm 0.00 in0.0 mm 0.28 in7.1 mm
08:45 PM 47.1°F8.4°C 44.4°F6.9°C 90% 2.0 mph WSW3.2 kmh WSW -- 29.73 in1006.8 mb 0.00 in0.0 mm 0.00 in0.0 mm 0.28 in7.1 mm
08:50 PM 47.1°F8.4°C 44.4°F6.9°C 90% 2.0 mph SSW3.2 kmh SSW -- 29.73 in1006.8 mb 0.00 in0.0 mm 0.00 in0.0 mm 0.28 in7.1 mm
08:55 PM 47.1°F8.4°C 44.4°F6.9°C 90% 4.0 mph SW6.4 kmh SW -- 29.74 in1007.1 mb 0.00 in0.0 mm 0.00 in0.0 mm 0.28 in7.1 mm
09:00 PM 47.1°F8.4°C 44.4°F6.9°C 90% 1.0 mph SSW1.6 kmh SSW -- 29.74 in1007.1 mb 0.00 in0.0 mm 0.00 in0.0 mm 0.28 in7.1 mm
09:05 PM 47.0°F8.3°C 44.2°F6.8°C 90% 4.0 mph SW6.4 kmh SW 6.0 mph9.7 kmh 29.74 in1007.1 mb 0.00 in0.0 mm 0.00 in0.0 mm 0.28 in7.1 mm
09:10 PM 47.0°F8.3°C 44.2°F6.8°C 90% 2.0 mph SW3.2 kmh SW -- 29.75 in1007.5 mb 0.00 in0.0 mm 0.00 in0.0 mm 0.28 in7.1 mm
09:15 PM 47.0°F8.3°C 44.2°F6.8°C 90% 2.0 mph SW3.2 kmh SW -- 29.75 in1007.5 mb 0.00 in0.0 mm 0.00 in0.0 mm 0.28 in7.1 mm
09:20 PM 47.0°F8.3°C 44.2°F6.8°C 90% Calm Calm -- 29.75 in1007.5 mb 0.00 in0.0 mm 0.00 in0.0 mm 0.28 in7.1 mm
09:25 PM 46.9°F8.3°C 44.2°F6.8°C 90% Calm Calm -- 29.75 in1007.5 mb 0.00 in0.0 mm 0.00 in0.0 mm 0.28 in7.1 mm
09:30 PM 46.9°F8.3°C 44.4°F6.9°C 91% Calm Calm 3.0 mph4.8 kmh 29.76 in1007.8 mb 0.00 in0.0 mm 0.00 in0.0 mm 0.28 in7.1 mm
09:35 PM 46.8°F8.2°C 44.2°F6.8°C 91% 1.0 mph WSW1.6 kmh WSW -- 29.76 in1007.8 mb 0.00 in0.0 mm 0.00 in0.0 mm 0.28 in7.1 mm
09:40 PM 46.8°F8.2°C 44.2°F6.8°C 91% Calm Calm -- 29.76 in1007.8 mb 0.00 in0.0 mm 0.00 in0.0 mm 0.28 in7.1 mm
09:45 PM 46.8°F8.2°C 44.2°F6.8°C 91% 2.0 mph SW3.2 kmh SW -- 29.76 in1007.8 mb 0.00 in0.0 mm 0.00 in0.0 mm 0.28 in7.1 mm
09:50 PM 46.9°F8.3°C 44.4°F6.9°C 91% Calm Calm -- 29.77 in1008.1 mb 0.00 in0.0 mm 0.00 in0.0 mm 0.28 in7.1 mm
09:55 PM 46.8°F8.2°C 44.2°F6.8°C 91% Calm Calm 4.0 mph6.4 kmh 29.77 in1008.1 mb 0.00 in0.0 mm 0.00 in0.0 mm 0.28 in7.1 mm
10:00 PM 46.8°F8.2°C 44.2°F6.8°C 91% Calm Calm -- 29.77 in1008.1 mb 0.00 in0.0 mm 0.00 in0.0 mm 0.28 in7.1 mm
10:05 PM 46.8°F8.2°C 44.2°F6.8°C 91% 1.0 mph S1.6 kmh S -- 29.77 in1008.1 mb 0.00 in0.0 mm 0.00 in0.0 mm 0.28 in7.1 mm
10:10 PM 46.9°F8.3°C 44.4°F6.9°C 91% 1.0 mph S1.6 kmh S -- 29.77 in1008.1 mb 0.00 in0.0 mm 0.00 in0.0 mm 0.28 in7.1 mm
10:15 PM 46.8°F8.2°C 44.2°F6.8°C 91% Calm Calm -- 29.77 in1008.1 mb 0.00 in0.0 mm 0.00 in0.0 mm 0.28 in7.1 mm
10:20 PM 46.8°F8.2°C 44.1°F6.7°C 90% Calm Calm 3.0 mph4.8 kmh 29.77 in1008.1 mb 0.00 in0.0 mm 0.00 in0.0 mm 0.28 in7.1 mm
10:25 PM 46.8°F8.2°C 44.1°F6.7°C 90% 5.0 mph SW8.0 kmh SW -- 29.78 in1008.5 mb 0.00 in0.0 mm 0.00 in0.0 mm 0.28 in7.1 mm
10:30 PM 46.8°F8.2°C 44.1°F6.7°C 90% 2.0 mph S3.2 kmh S -- 29.78 in1008.5 mb 0.00 in0.0 mm 0.00 in0.0 mm 0.28 in7.1 mm
10:35 PM 46.8°F8.2°C 44.1°F6.7°C 90% Calm Calm -- 29.78 in1008.5 mb 0.00 in0.0 mm 0.00 in0.0 mm 0.28 in7.1 mm
10:40 PM 46.8°F8.2°C 44.1°F6.7°C 90% 1.0 mph SW1.6 kmh SW -- 29.78 in1008.5 mb 0.00 in0.0 mm 0.00 in0.0 mm 0.28 in7.1 mm
10:45 PM 46.8°F8.2°C 44.2°F6.8°C 91% Calm Calm 5.0 mph8.0 kmh 29.78 in1008.5 mb 0.00 in0.0 mm 0.00 in0.0 mm 0.28 in7.1 mm
10:50 PM 46.8°F8.2°C 44.2°F6.8°C 91% 4.0 mph WSW6.4 kmh WSW -- 29.79 in1008.8 mb 0.00 in0.0 mm 0.00 in0.0 mm 0.28 in7.1 mm
10:55 PM 46.8°F8.2°C 44.2°F6.8°C 91% Calm Calm -- 29.79 in1008.8 mb 0.00 in0.0 mm 0.00 in0.0 mm 0.28 in7.1 mm
11:00 PM 46.7°F8.2°C 44.2°F6.8°C 91% 4.0 mph SW6.4 kmh SW -- 29.79 in1008.8 mb 0.00 in0.0 mm 0.00 in0.0 mm 0.17 in4.3 mm
11:05 PM 46.7°F8.2°C 44.2°F6.8°C 91% 2.0 mph WSW3.2 kmh WSW -- 29.79 in1008.8 mb 0.00 in0.0 mm 0.00 in0.0 mm 0.17 in4.3 mm
11:10 PM 46.7°F8.2°C 44.1°F6.7°C 90% Calm Calm 5.0 mph8.0 kmh 29.79 in1008.8 mb 0.00 in0.0 mm 0.00 in0.0 mm 0.17 in4.3 mm
11:15 PM 46.5°F8.1°C 43.9°F6.6°C 90% Calm Calm -- 29.80 in1009.1 mb 0.00 in0.0 mm 0.00 in0.0 mm 0.17 in4.3 mm
11:20 PM 46.4°F8.0°C 43.7°F6.5°C 90% 1.0 mph WSW1.6 kmh WSW -- 29.80 in1009.1 mb 0.00 in0.0 mm 0.00 in0.0 mm 0.17 in4.3 mm
11:25 PM 46.3°F7.9°C 43.5°F6.4°C 90% 2.0 mph W3.2 kmh W -- 29.80 in1009.1 mb 0.00 in0.0 mm 0.00 in0.0 mm 0.17 in4.3 mm
11:30 PM 46.2°F7.9°C 43.5°F6.4°C 90% 2.0 mph WSW3.2 kmh WSW -- 29.80 in1009.1 mb 0.00 in0.0 mm 0.00 in0.0 mm 0.17 in4.3 mm
11:35 PM 45.9°F7.7°C 43.3°F6.3°C 91% 4.0 mph SW6.4 kmh SW 5.0 mph8.0 kmh 29.80 in1009.1 mb 0.00 in0.0 mm 0.00 in0.0 mm 0.17 in4.3 mm
11:40 PM 45.6°F7.6°C 43.2°F6.2°C 91% 2.0 mph SW3.2 kmh SW -- 29.81 in1009.5 mb 0.00 in0.0 mm 0.00 in0.0 mm 0.17 in4.3 mm
11:45 PM 45.3°F7.4°C 42.8°F6.0°C 91% 4.0 mph SW6.4 kmh SW -- 29.80 in1009.1 mb 0.00 in0.0 mm 0.00 in0.0 mm 0.17 in4.3 mm
11:50 PM 45.1°F7.3°C 43.0°F6.1°C 92% 3.0 mph WSW4.8 kmh WSW -- 29.81 in1009.5 mb 0.00 in0.0 mm 0.00 in0.0 mm 0.17 in4.3 mm
11:55 PM 45.1°F7.3°C 43.0°F6.1°C 92% 4.0 mph WSW6.4 kmh WSW -- 29.81 in1009.5 mb 0.00 in0.0 mm 0.00 in0.0 mm 0.17 in4.3 mm